Trenton, New Jersey
Current Conditions -  °F | °C
As of 4:53 AM on Thursday 27 Nov 2014 (Local Time) from KTTN Reporting Station
Overcast Overcast  
Wind Chill: 29°   Ceiling: 4100
Heat Index: 35°   Visibility: 10mi
Dew Point: 29°   Wind: 7mph
Humidity: 78%   Direction: 270°W
Pressure: 29.96"   Gusts: NA
Location:  40.22°N, 74.76°W
Report Text: KTTN 270953Z AUTO 27006KT 10SM BKN041 OVC050 02/M02 A2996 RMK AO2 SLP140 T00171017
Loading
Personal Weather Stations






























Interactive Weather Map New forecast layout! Learn more

10-Day Weather Forecast

Advertisements
Track Severe Weather on mobile